Time;durP1;ratioP1;P1;durP2;ratioP2;P2;SDS_P1;SDS_P2;PMS_P1;PMS_P2;Temp;Humidity;BMP_temperature;BMP_pressure;BME280_temperature;BME280_humidity;BME280_pressure;Samples;Min_cycle;Max_cycle;Signal;HPM_P1;HPM_P2
2023/06/09 15:20:30;;;;;;;6.50;2.80;;;;;;;40.95;18.33;99387.40;101561;1294;601701;-66
2023/06/09 15:22:59;;;;;;;12.70;2.90;;;;;;;41.08;19.26;99385.93;104639;1267;59819;-68
2023/06/09 15:25:32;;;;;;;6.80;2.50;;;;;;;40.69;19.09;99384.87;103945;1266;60043;-68
2023/06/09 15:28:01;;;;;;;7.60;2.60;;;;;;;39.88;20.14;99386.13;104180;1261;71984;-69
2023/06/09 15:30:30;;;;;;;2.30;2.10;;;;;;;38.89;20.78;99384.81;104417;1260;68154;-71
2023/06/09 15:33:04;;;;;;;4.70;2.40;;;;;;;37.97;21.40;99390.20;104037;1260;236127;-69
2023/06/09 15:35:32;;;;;;;5.90;2.30;;;;;;;37.16;22.25;99390.52;104662;1262;59657;-67
2023/06/09 15:38:01;;;;;;;3.00;2.00;;;;;;;36.58;22.67;99386.04;104343;1259;59822;-67
2023/06/09 15:40:30;;;;;;;2.40;2.00;;;;;;;36.17;22.77;99388.55;104642;1260;72442;-68
2023/06/09 15:42:59;;;;;;;4.60;1.90;;;;;;;35.75;22.64;99382.73;104621;1256;68509;-68
2023/06/09 15:45:26;;;;;;;6.60;2.20;;;;;;;35.55;22.89;99383.60;104386;1256;72201;-68
2023/06/09 15:47:54;;;;;;;3.90;2.40;;;;;;;36.13;22.35;99382.56;104619;1254;59909;-67
2023/06/09 15:50:22;;;;;;;4.50;2.30;;;;;;;36.98;21.19;99382.39;104814;1258;59713;-66
2023/06/09 15:52:50;;;;;;;4.30;2.40;;;;;;;37.65;20.70;99379.70;104576;1254;73712;-67
2023/06/09 15:55:18;;;;;;;4.10;2.50;;;;;;;38.17;20.21;99374.96;104477;1260;69793;-69
2023/06/09 15:57:46;;;;;;;5.80;2.30;;;;;;;38.41;20.14;99376.44;104349;1254;72492;-66
2023/06/09 16:00:14;;;;;;;2.90;2.30;;;;;;;37.90;20.21;99380.37;104364;1254;60330;-68
2023/06/09 16:02:41;;;;;;;2.70;2.10;;;;;;;37.17;21.08;99385.60;104567;1254;60561;-68
2023/06/09 16:05:09;;;;;;;3.40;2.20;;;;;;;36.46;21.58;99382.38;104494;1254;71811;-68
2023/06/09 16:07:37;;;;;;;5.00;2.10;;;;;;;35.81;22.07;99383.69;104513;1255;69810;-68
2023/06/09 16:10:05;;;;;;;4.00;2.40;;;;;;;35.27;22.58;99386.63;107428;1253;73335;-69
2023/06/09 16:12:33;;;;;;;4.20;2.30;;;;;;;35.02;23.36;99389.67;108069;1254;60089;-68
2023/06/09 16:15:01;;;;;;;3.80;2.40;;;;;;;34.86;23.74;99390.23;104594;1265;59987;-66
2023/06/09 16:17:30;;;;;;;3.70;2.20;;;;;;;34.70;23.92;99386.40;104842;1260;73824;-67
2023/06/09 16:20:00;;;;;;;7.10;3.00;;;;;;;34.58;23.91;99389.09;104629;1257;70105;-66
2023/06/09 16:22:28;;;;;;;4.20;2.60;;;;;;;34.10;24.18;99390.11;104930;1255;72369;-66
2023/06/09 16:24:55;;;;;;;7.40;2.30;;;;;;;33.47;24.76;99392.84;104305;1262;60169;-66
2023/06/09 16:27:23;;;;;;;4.10;2.50;;;;;;;32.78;25.41;99394.59;104418;1260;59828;-67
2023/06/09 16:29:52;;;;;;;3.50;2.30;;;;;;;32.20;26.40;99394.39;108162;1254;72803;-67
2023/06/09 16:32:20;;;;;;;5.40;2.70;;;;;;;31.75;27.11;99398.19;107236;1254;69293;-67
2023/06/09 16:34:48;;;;;;;6.00;2.60;;;;;;;31.34;27.51;99397.80;104600;1254;73405;-68
2023/06/09 16:37:16;;;;;;;3.70;2.90;;;;;;;30.93;28.24;99399.83;105098;1254;59755;-68
2023/06/09 16:39:43;;;;;;;6.60;2.20;;;;;;;30.57;29.92;99402.09;104802;1260;59720;-67
2023/06/09 16:42:12;;;;;;;3.30;2.30;;;;;;;30.25;31.18;99407.73;104621;1254;71497;-66
2023/06/09 16:44:40;;;;;;;3.80;2.70;;;;;;;29.95;32.27;99406.48;104580;1263;69101;-66
2023/06/09 16:47:07;;;;;;;8.10;3.10;;;;;;;29.67;34.71;99410.75;104493;1254;72901;-66
2023/06/09 16:49:35;;;;;;;5.40;2.80;;;;;;;29.38;35.04;99408.52;104723;1254;60291;-68
2023/06/09 16:52:03;;;;;;;3.40;2.60;;;;;;;29.11;35.55;99411.24;104415;1260;60118;-69
2023/06/09 16:54:31;;;;;;;5.10;3.00;;;;;;;28.81;39.12;99411.65;104373;1260;72643;-69
2023/06/09 16:56:58;;;;;;;;;;;;;;;28.56;39.02;99414.52;104592;1254;69142;-71
2023/06/09 16:59:30;;;;;;;4.80;2.80;;;;;;;28.28;42.00;99412.03;104726;1254;72926;-68
2023/06/09 17:01:58;;;;;;;;;;;;;;;28.05;44.61;99413.08;104608;1260;59978;-67
2023/06/09 17:04:25;;;;;;;2.90;2.40;;;;;;;27.80;43.64;99414.02;104420;1259;59730;-69
2023/06/09 17:06:53;;;;;;;4.30;2.70;;;;;;;27.58;46.25;99416.52;104619;1257;73247;-68
2023/06/09 17:09:21;;;;;;;3.40;2.50;;;;;;;27.37;47.62;99418.92;104518;1260;69636;-68
2023/06/09 17:11:49;;;;;;;4.10;3.20;;;;;;;27.19;49.84;99418.31;106537;1254;72554;-67
2023/06/09 17:14:17;;;;;;;5.80;2.90;;;;;;;27.02;52.15;99421.14;107316;1254;59892;-69
2023/06/09 17:16:47;;;;;;;4.60;3.00;;;;;;;26.82;59.08;99420.61;105158;1255;59829;-69
2023/06/09 17:19:15;;;;;;;4.40;3.10;;;;;;;26.62;62.37;99421.25;104776;1254;73258;-72
2023/06/09 17:21:42;;;;;;;;;;;;;;;26.42;69.71;99427.78;104732;1259;69025;-71
2023/06/09 17:24:11;;;;;;;5.60;2.80;;;;;;;26.20;75.59;99428.95;104838;1260;72378;-69
2023/06/09 17:26:39;;;;;;;4.00;3.10;;;;;;;26.02;81.25;99429.22;104576;1254;59910;-70
2023/06/09 17:29:07;;;;;;;5.00;2.90;;;;;;;25.86;87.18;99431.30;104478;1259;59806;-70
2023/06/09 17:31:35;;;;;;;6.20;2.90;;;;;;;25.71;89.01;99433.33;104518;1275;71929;-70
2023/06/09 17:34:02;;;;;;;6.50;3.10;;;;;;;25.58;96.00;99434.52;104592;1260;69330;-68
2023/06/09 17:36:30;;;;;;;;;;;;;;;25.46;98.70;99438.02;104527;1254;72328;-70
2023/06/09 17:38:58;;;;;;;8.20;2.90;;;;;;;25.30;100.00;99433.52;104989;1254;59801;-68
2023/06/09 17:41:26;;;;;;;5.30;2.90;;;;;;;25.17;99.96;99439.52;104614;1254;59774;-68
2023/06/09 17:43:54;;;;;;;5.10;2.50;;;;;;;25.05;100.00;99440.23;104571;1260;73810;-69
2023/06/09 17:46:22;;;;;;;4.10;2.80;;;;;;;24.95;100.00;99444.04;104376;1260;69899;-67
2023/06/09 17:48:50;;;;;;;5.80;2.70;;;;;;;24.86;100.00;99444.39;104352;1260;73423;-67
2023/06/09 17:51:17;;;;;;;4.80;3.00;;;;;;;24.75;100.00;99442.44;104352;1259;59931;-70
2023/06/09 17:53:45;;;;;;;;;;;;;;;24.64;100.00;99450.43;104581;1254;59972;-67
2023/06/09 17:56:12;;;;;;;12.00;3.40;;;;;;;24.51;100.00;99452.09;104457;1266;72891;-66
2023/06/09 17:58:40;;;;;;;8.00;3.10;;;;;;;24.41;100.00;99451.89;104659;1257;69675;-67
2023/06/09 18:01:08;;;;;;;4.00;3.00;;;;;;;24.32;100.00;99456.45;104525;1260;72418;-66
2023/06/09 18:03:36;;;;;;;6.10;3.00;;;;;;;24.22;100.00;99454.77;104714;1257;60856;-68
2023/06/09 18:06:04;;;;;;;4.60;3.30;;;;;;;24.14;100.00;99456.52;104413;1259;59704;-67
2023/06/09 18:08:31;;;;;;;4.50;3.30;;;;;;;24.03;100.00;99454.38;104586;1254;71993;-66
2023/06/09 18:10:59;;;;;;;6.60;3.90;;;;;;;23.93;100.00;99458.63;105812;1253;69892;-66
2023/06/09 18:13:27;;;;;;;;;;;;;;;23.84;100.00;99456.14;108293;1253;71795;-67
2023/06/09 18:15:54;;;;;;;5.70;3.90;;;;;;;23.72;100.00;99459.83;104821;1254;60743;-66
2023/06/09 18:18:22;;;;;;;5.80;3.90;;;;;;;23.62;100.00;99459.41;104892;1260;59697;-66
2023/06/09 18:20:50;;;;;;;6.20;3.40;;;;;;;23.55;100.00;99461.20;108131;1254;73218;-67
2023/06/09 18:23:17;;;;;;;8.10;3.60;;;;;;;23.46;100.00;99461.88;108121;1254;69894;-68
2023/06/09 18:25:46;;;;;;;7.90;3.10;;;;;;;23.38;100.00;99463.17;108176;1254;72892;-67
2023/06/09 18:28:15;;;;;;;4.60;3.20;;;;;;;23.31;100.00;99470.82;108205;1254;62303;-67
2023/06/09 18:30:48;;;;;;;5.80;3.20;;;;;;;23.27;100.00;99473.63;108329;1254;59667;-67
2023/06/09 18:33:17;;;;;;;5.50;3.10;;;;;;;23.24;100.00;99476.23;108179;1254;71781;-73
2023/06/09 18:35:45;;;;;;;10.10;3.20;;;;;;;23.15;100.00;99480.45;108114;1254;70337;-72
2023/06/09 18:38:13;;;;;;;5.90;3.00;;;;;;;23.07;100.00;99482.32;108114;1254;72477;-72
2023/06/09 18:40:41;;;;;;;7.30;3.10;;;;;;;23.01;100.00;99484.20;108137;1254;59852;-73
2023/06/09 18:43:09;;;;;;;4.80;3.10;;;;;;;22.94;100.00;99485.70;108167;1254;60409;-73
2023/06/09 18:45:37;;;;;;;3.90;2.60;;;;;;;22.88;100.00;99490.02;108103;1254;73758;-70
2023/06/09 18:48:06;;;;;;;6.50;3.20;;;;;;;22.84;100.00;99494.70;108242;1254;69916;-71
2023/06/09 18:50:34;;;;;;;3.20;3.00;;;;;;;22.78;100.00;99496.77;108278;1254;72467;-71
2023/06/09 18:53:02;;;;;;;8.00;3.60;;;;;;;22.70;100.00;99493.88;108354;1254;59207;-73
2023/06/09 18:55:30;;;;;;;8.70;3.50;;;;;;;22.65;100.00;99500.80;108312;1254;60073;-73
2023/06/09 18:57:57;;;;;;;5.10;3.00;;;;;;;22.58;100.00;99496.65;108382;1254;73368;-72
2023/06/09 19:00:25;;;;;;;7.20;3.00;;;;;;;22.52;100.00;99495.09;108347;1257;69057;-73
2023/06/09 19:02:53;;;;;;;6.70;3.00;;;;;;;22.44;100.00;99498.85;108312;1254;72595;-72
2023/06/09 19:05:21;;;;;;;;;;;;;;;22.41;100.00;99500.43;108377;1254;59923;-72
2023/06/09 19:07:48;;;;;;;4.60;2.90;;;;;;;22.31;100.00;99500.66;108305;1254;58642;-71
2023/06/09 19:10:16;;;;;;;;;;;;;;;22.25;100.00;99501.71;108279;1254;73298;-71
2023/06/09 19:12:44;;;;;;;;;;;;;;;22.19;100.00;99500.35;108206;1254;68224;-71
2023/06/09 19:15:11;;;;;;;4.40;3.10;;;;;;;22.09;100.00;99501.64;108154;1254;71592;-70
2023/06/09 19:17:40;;;;;;;3.80;3.40;;;;;;;22.00;100.00;99500.84;108099;1254;59785;-72
2023/06/09 19:20:08;;;;;;;3.50;3.20;;;;;;;21.97;100.00;99498.21;108278;1254;59687;-70
2023/06/09 19:22:35;;;;;;;5.30;3.00;;;;;;;21.93;100.00;99496.08;108194;1254;72835;-70
2023/06/09 19:25:05;;;;;;;3.50;3.10;;;;;;;21.90;100.00;99493.35;108093;1254;69098;-70
2023/06/09 19:27:33;;;;;;;4.10;3.10;;;;;;;21.86;100.00;99491.23;108285;1254;72758;-72
2023/06/09 19:30:03;;;;;;;6.30;3.10;;;;;;;21.81;100.00;99493.86;108093;1254;59730;-70
2023/06/09 19:32:31;;;;;;;4.50;3.40;;;;;;;21.77;100.00;99494.94;108253;1254;59677;-70
2023/06/09 19:34:59;;;;;;;6.80;3.10;;;;;;;21.74;100.00;99493.02;108168;1254;73593;-70
2023/06/09 19:37:26;;;;;;;7.40;2.90;;;;;;;21.71;100.00;99491.14;108288;1254;68848;-71
2023/06/09 19:39:55;;;;;;;3.90;3.50;;;;;;;21.72;100.00;99486.29;108137;1254;72639;-72
2023/06/09 19:42:23;;;;;;;4.90;2.90;;;;;;;21.70;100.00;99488.43;108219;1254;59838;-72
2023/06/09 19:44:51;;;;;;;3.30;3.00;;;;;;;21.69;100.00;99490.27;108319;1257;60059;-72
2023/06/09 19:47:19;;;;;;;4.80;3.60;;;;;;;21.69;100.00;99488.00;108190;1254;73703;-72
2023/06/09 19:49:47;;;;;;;3.30;3.00;;;;;;;21.68;100.00;99487.36;108278;1254;68845;-72
2023/06/09 19:52:16;;;;;;;6.20;3.10;;;;;;;21.67;100.00;99485.47;108201;1254;72334;-72
2023/06/09 19:54:44;;;;;;;6.00;3.10;;;;;;;21.66;100.00;99482.89;108336;1254;59744;-73
2023/06/09 19:57:12;;;;;;;4.70;3.20;;;;;;;21.65;100.00;99484.92;108400;1253;60619;-71
2023/06/09 19:59:39;;;;;;;5.90;3.20;;;;;;;21.64;100.00;99481.81;108241;1254;73610;-72
2023/06/09 20:02:07;;;;;;;4.90;2.70;;;;;;;21.61;100.00;99478.77;108272;1254;69197;-72
2023/06/09 20:04:35;;;;;;;;;;;;;;;21.58;100.00;99481.16;108404;1254;72533;-72
2023/06/09 20:07:03;;;;;;;4.00;3.20;;;;;;;21.52;100.00;99482.36;108231;1255;59859;-72
2023/06/09 20:09:31;;;;;;;6.90;3.10;;;;;;;21.48;100.00;99477.71;108058;1254;59813;-72
2023/06/09 20:11:58;;;;;;;3.80;3.00;;;;;;;21.42;100.00;99475.05;108014;1254;74159;-72
2023/06/09 20:14:26;;;;;;;4.70;3.10;;;;;;;21.38;100.00;99472.75;108122;1254;69019;-70
2023/06/09 20:16:54;;;;;;;4.60;2.70;;;;;;;21.34;100.00;99471.84;108043;1254;72399;-69
2023/06/09 20:19:21;;;;;;;;;;;;;;;21.29;100.00;99472.68;108080;1254;59859;-70
2023/06/09 20:21:50;;;;;;;;;;;;;;;21.22;100.00;99471.91;107991;1254;59523;-70
2023/06/09 20:24:20;;;;;;;3.50;3.00;;;;;;;21.13;100.00;99470.15;108258;1253;73736;-69
2023/06/09 20:26:48;;;;;;;5.00;3.40;;;;;;;21.05;100.00;99471.24;108198;1254;69604;-69
2023/06/09 20:29:15;;;;;;;4.30;2.90;;;;;;;20.97;100.00;99468.54;108561;1251;71987;-68
2023/06/09 20:31:43;;;;;;;3.50;2.90;;;;;;;20.94;100.00;99465.63;108562;1251;60874;-69
2023/06/09 20:34:11;;;;;;;5.80;2.70;;;;;;;20.89;100.00;99470.68;108564;1251;59650;-70
2023/06/09 20:36:39;;;;;;;3.70;2.80;;;;;;;20.84;100.00;99469.20;108478;1251;73644;-70
2023/06/09 20:39:09;;;;;;;5.10;3.10;;;;;;;20.80;100.00;99470.45;108455;1254;69169;-70
2023/06/09 20:41:37;;;;;;;6.00;3.00;;;;;;;20.72;100.00;99470.77;108449;1253;71861;-69
2023/06/09 20:44:04;;;;;;;3.60;2.80;;;;;;;20.64;100.00;99470.39;108420;1254;58727;-70
2023/06/09 20:46:35;;;;;;;5.10;3.10;;;;;;;20.56;100.00;99471.42;108426;1251;60070;-69
2023/06/09 20:49:03;;;;;;;5.10;3.20;;;;;;;20.50;100.00;99469.85;108505;1251;72650;-71
2023/06/09 20:51:31;;;;;;;5.00;3.10;;;;;;;20.40;100.00;99470.81;108564;1251;70139;-71
2023/06/09 20:54:00;;;;;;;;;;;;;;;20.37;100.00;99474.70;108572;1254;72354;-71
2023/06/09 20:56:27;;;;;;;5.30;3.60;;;;;;;20.32;100.00;99469.39;108599;1251;59825;-71
2023/06/09 20:58:55;;;;;;;4.30;3.60;;;;;;;20.28;100.00;99466.17;108597;1251;59115;-72
2023/06/09 21:01:23;;;;;;;4.30;3.90;;;;;;;20.24;100.00;99466.88;108646;1253;74150;-72
2023/06/09 21:03:51;;;;;;;7.90;4.20;;;;;;;20.22;100.00;99466.36;108567;1254;69696;-71
2023/06/09 21:06:21;;;;;;;5.30;3.60;;;;;;;20.20;100.00;99469.02;108591;1252;72532;-72
2023/06/09 21:08:48;;;;;;;6.60;4.60;;;;;;;20.14;100.00;99471.48;108604;1251;59703;-71
2023/06/09 21:11:16;;;;;;;4.90;3.90;;;;;;;20.09;100.00;99470.46;108561;1256;59687;-71
2023/06/09 21:13:45;;;;;;;6.00;4.80;;;;;;;20.06;100.00;99477.85;108496;1254;73689;-72
2023/06/09 21:16:13;;;;;;;12.20;5.30;;;;;;;20.07;100.00;99476.52;108460;1251;69434;-71
2023/06/09 21:18:40;;;;;;;7.90;5.00;;;;;;;20.07;100.00;99478.15;108445;1251;72597;-71
2023/06/09 21:21:08;;;;;;;6.10;5.30;;;;;;;20.07;100.00;99477.06;108441;1254;59728;-73
2023/06/09 21:23:36;;;;;;;;;;;;;;;20.08;100.00;99480.17;108458;1252;59689;-71
2023/06/09 21:26:04;;;;;;;8.80;3.80;;;;;;;20.07;100.00;99481.33;108498;1251;73671;-71
2023/06/09 21:28:31;;;;;;;8.10;4.80;;;;;;;20.07;100.00;99477.81;108651;1252;69674;-71
2023/06/09 21:31:02;;;;;;;5.90;4.80;;;;;;;20.08;100.00;99478.41;108542;1256;71226;-72
2023/06/09 21:33:30;;;;;;;7.40;4.80;;;;;;;20.08;100.00;99477.38;108588;1252;59007;-72
2023/06/09 21:35:57;;;;;;;7.70;4.80;;;;;;;20.08;100.00;99475.91;108602;1251;60133;-73
2023/06/09 21:38:25;;;;;;;6.80;4.50;;;;;;;20.08;100.00;99475.58;108571;1251;74262;-72
2023/06/09 21:40:53;;;;;;;6.60;4.40;;;;;;;20.09;100.00;99477.04;108571;1254;69335;-70
2023/06/09 21:43:21;;;;;;;4.60;4.10;;;;;;;20.10;100.00;99481.23;108591;1251;71532;-69
2023/06/09 21:45:48;;;;;;;6.70;4.50;;;;;;;20.13;100.00;99480.48;108628;1251;59725;-69
2023/06/09 21:48:17;;;;;;;6.50;4.10;;;;;;;20.14;100.00;99482.16;108610;1255;58533;-70
2023/06/09 21:50:45;;;;;;;9.60;4.00;;;;;;;20.14;100.00;99482.21;108622;1251;72902;-71
2023/06/09 21:53:12;;;;;;;7.00;4.00;;;;;;;20.15;100.00;99483.17;108580;1251;68255;-70
2023/06/09 21:55:44;;;;;;;6.80;4.30;;;;;;;20.15;100.00;99484.35;108560;1251;72359;-70
2023/06/09 21:58:12;;;;;;;7.20;4.10;;;;;;;20.16;100.00;99481.08;108590;1251;59762;-71
2023/06/09 22:00:39;;;;;;;5.50;4.10;;;;;;;20.18;100.00;99481.25;108606;1251;60374;-70
2023/06/09 22:03:08;;;;;;;5.10;4.10;;;;;;;20.22;100.00;99477.91;108555;1254;73534;-71
2023/06/09 22:05:36;;;;;;;10.10;4.20;;;;;;;20.23;100.00;99476.58;108639;1251;69026;-71
2023/06/09 22:08:03;;;;;;;;;;;;;;;20.22;100.00;99478.07;108664;1251;72456;-70
2023/06/09 22:10:31;;;;;;;4.50;4.00;;;;;;;20.20;100.00;99473.79;108535;1252;60158;-70
2023/06/09 22:12:59;;;;;;;;;;;;;;;20.18;100.00;99472.33;108541;1251;61254;-70
2023/06/09 22:15:26;;;;;;;;;;;;;;;20.13;100.00;99467.25;108537;1251;73643;-71
2023/06/09 22:17:54;;;;;;;5.20;3.80;;;;;;;20.08;100.00;99469.31;108492;1254;70040;-71
2023/06/09 22:20:23;;;;;;;;;;;;;;;20.03;100.00;99467.78;108437;1254;71747;-72
2023/06/09 22:22:51;;;;;;;5.00;3.60;;;;;;;19.97;100.00;99461.36;108485;1254;59842;-70
2023/06/09 22:25:19;;;;;;;6.70;4.30;;;;;;;19.92;100.00;99462.17;108465;1251;58949;-70
2023/06/09 22:27:47;;;;;;;5.60;4.10;;;;;;;19.87;100.00;99461.67;108515;1252;74241;-70
2023/06/09 22:30:14;;;;;;;;;;;;;;;19.81;100.00;99458.08;108554;1251;70046;-71
2023/06/09 22:32:42;;;;;;;;;;;;;;;19.75;100.00;99457.16;108582;1251;72430;-71
2023/06/09 22:35:10;;;;;;;;;;;;;;;19.70;100.00;99455.95;108589;1253;59729;-71
2023/06/09 22:37:38;;;;;;;5.40;3.80;;;;;;;19.63;100.00;99455.66;108559;1251;59512;-70
2023/06/09 22:40:08;;;;;;;7.70;4.50;;;;;;;19.65;100.00;99454.63;108580;1251;73781;-70
2023/06/09 22:42:35;;;;;;;10.40;4.20;;;;;;;19.60;100.00;99449.52;108522;1251;68463;-70
2023/06/09 22:45:03;;;;;;;4.80;4.30;;;;;;;19.54;100.00;99449.95;108556;1251;73180;-70
2023/06/09 22:47:31;;;;;;;6.00;4.30;;;;;;;19.50;100.00;99445.55;108561;1252;60281;-70
2023/06/09 22:50:04;;;;;;;5.50;4.50;;;;;;;19.49;100.00;99442.45;108562;1254;60630;-69
2023/06/09 22:52:32;;;;;;;8.00;4.30;;;;;;;19.44;100.00;99442.80;108584;1251;74201;-70
2023/06/09 22:55:00;;;;;;;7.20;4.30;;;;;;;19.39;100.00;99439.86;108504;1251;69606;-70
2023/06/09 22:57:28;;;;;;;7.20;4.40;;;;;;;19.32;100.00;99436.54;108534;1251;72351;-69
2023/06/09 22:59:55;;;;;;;8.30;4.40;;;;;;;19.25;100.00;99434.05;108560;1256;60399;-71
2023/06/09 23:02:23;;;;;;;5.80;4.40;;;;;;;19.20;100.00;99432.34;108554;1251;60030;-70
2023/06/09 23:04:58;;;;;;;8.10;4.40;;;;;;;19.16;100.00;99427.20;108571;1254;73676;-70
2023/06/09 23:07:27;;;;;;;5.70;4.00;;;;;;;19.12;100.00;99425.75;108574;1251;69832;-70
2023/06/09 23:09:54;;;;;;;5.10;4.40;;;;;;;19.06;100.00;99422.16;108593;1254;72401;-69
2023/06/09 23:12:22;;;;;;;;;;;;;;;19.02;100.00;99417.27;108525;1252;60220;-70
2023/06/09 23:14:49;;;;;;;;;;;;;;;18.96;100.00;99415.86;108460;1251;59703;-69
2023/06/09 23:17:17;;;;;;;7.60;3.90;;;;;;;18.89;100.00;99414.42;108489;1251;73866;-69
2023/06/09 23:19:45;;;;;;;6.90;4.10;;;;;;;18.83;100.00;99416.55;108424;1254;69168;-70
2023/06/09 23:22:13;;;;;;;5.50;3.90;;;;;;;18.77;100.00;99416.81;108501;1252;73340;-70
2023/06/09 23:24:41;;;;;;;;;;;;;;;18.77;100.00;99414.88;108470;1251;60424;-71
2023/06/09 23:27:09;;;;;;;6.80;4.00;;;;;;;18.74;100.00;99414.75;108485;1254;60469;-71
2023/06/09 23:29:37;;;;;;;;;;;;;;;18.70;100.00;99411.98;108595;1251;72537;-70
2023/06/09 23:32:11;;;;;;;5.40;3.80;;;;;;;18.61;100.00;99407.78;108556;1251;69214;-71
2023/06/09 23:34:39;;;;;;;6.40;4.20;;;;;;;18.56;100.00;99405.11;108562;1251;72464;-69
2023/06/09 23:37:09;;;;;;;6.30;4.30;;;;;;;18.53;100.00;99405.41;108618;1253;59815;-69
2023/06/09 23:39:37;;;;;;;5.60;3.90;;;;;;;18.46;100.00;99405.92;108471;1251;59678;-69
2023/06/09 23:42:05;;;;;;;6.40;4.00;;;;;;;18.43;100.00;99405.64;108574;1251;73760;-69
2023/06/09 23:44:33;;;;;;;6.00;3.90;;;;;;;18.41;100.00;99402.77;108602;1251;69146;-70
2023/06/09 23:47:01;;;;;;;4.70;3.80;;;;;;;18.38;100.00;99404.06;108626;1251;72479;-70
2023/06/09 23:49:29;;;;;;;5.70;4.10;;;;;;;18.35;100.00;99402.40;108635;1252;59463;-69
2023/06/09 23:51:57;;;;;;;7.30;4.40;;;;;;;18.33;100.00;99401.45;108586;1251;59803;-73
2023/06/09 23:54:25;;;;;;;4.30;3.70;;;;;;;18.29;100.00;99400.36;108524;1253;73422;-71
2023/06/09 23:56:53;;;;;;;;;;;;;;;18.26;100.00;99397.36;108597;1252;69087;-71
2023/06/09 23:59:21;;;;;;;5.40;3.60;;;;;;;18.21;100.00;99399.75;108537;1252;72587;-70
